Radison, New York
Current Conditions -  °F | °C
As of 4:54 AM on Wednesday 26 Nov 2014 (Local Time) from KFZY Reporting Station
Overcast Overcast  
Wind Chill: 36°   Ceiling: 3000
Heat Index: 36°   Visibility: 10mi
Dew Point: 24°   Wind: 0mph
Humidity: 62%   Direction: NA
Pressure: 30.2"   Gusts: NA
Location:  43.1825°N, 76.3664°W
Report Text: KFZY 260954Z AUTO 00000KT 10SM OVC030 02/M04 A3020 RMK AO2 SLP232 T00221044
Loading
Personal Weather Stations






























Interactive Weather Map New forecast layout! Learn more

10-Day Weather Forecast

Advertisements
Track Severe Weather on mobile